Time;durP1;ratioP1;P1;durP2;ratioP2;P2;SDS_P1;SDS_P2;PMS_P1;PMS_P2;Temp;Humidity;BMP_temperature;BMP_pressure;BME280_temperature;BME280_humidity;BME280_pressure;Samples;Min_cycle;Max_cycle;Signal;HPM_P1;HPM_P2
2021/05/07 00:01:45;;;;;;;;;13.00;10.75;;;;;;;;5024852;28;11397;-80
2021/05/07 00:04:15;;;;;;;;;14.00;10.00;;;;;;;;5009089;28;11624;-80
2021/05/07 00:06:41;;;;;;;;;11.50;10.25;;;;;;;;5019714;28;11539;-80
2021/05/07 00:09:10;;;;;;;;;9.50;7.00;;;;;;;;5019752;28;11593;-80
2021/05/07 00:11:37;;;;;;;;;9.50;9.50;;;;;;;;5007711;28;12192;-80
2021/05/07 00:14:05;;;;;;;;;13.00;10.50;;;;;;;;5021346;28;11518;-80
2021/05/07 00:16:32;;;;;;;;;13.75;10.75;;;;;;;;5016943;28;11599;-80
2021/05/07 00:18:58;;;;;;;;;14.25;10.00;;;;;;;;5023069;28;11554;-80
2021/05/07 00:21:25;;;;;;;;;9.00;9.00;;;;;;;;5002083;28;11632;-80
2021/05/07 00:23:52;;;;;;;;;10.25;9.25;;;;;;;;5023979;28;11495;-81
2021/05/07 00:26:21;;;;;;;;;11.00;10.00;;;;;;;;5009733;28;11575;-81
2021/05/07 00:28:48;;;;;;;;;14.75;12.50;;;;;;;;4997429;28;11557;-80
2021/05/07 00:31:17;;;;;;;;;10.75;9.00;;;;;;;;5020758;28;11390;-80
2021/05/07 00:33:43;;;;;;;;;6.75;6.75;;;;;;;;5028238;28;11585;-80
2021/05/07 00:36:10;;;;;;;;;15.25;11.50;;;;;;;;5025136;28;11479;-81
2021/05/07 00:38:37;;;;;;;;;12.25;11.00;;;;;;;;5023117;28;11542;-80
2021/05/07 00:41:04;;;;;;;;;8.75;8.75;;;;;;;;5012718;28;11592;-80
2021/05/07 00:43:32;;;;;;;;;11.50;11.50;;;;;;;;5006171;28;11522;-80
2021/05/07 00:45:59;;;;;;;;;4.50;2.00;;;;;;;;5015131;28;11581;-80
2021/05/07 00:48:26;;;;;;;;;13.25;10.00;;;;;;;;5025577;28;11506;-80
2021/05/07 00:50:53;;;;;;;;;11.75;11.25;;;;;;;;5008671;28;11555;-80
2021/05/07 00:53:21;;;;;;;;;6.25;3.50;;;;;;;;5017620;28;11577;-80
2021/05/07 00:55:48;;;;;;;;;7.75;7.75;;;;;;;;5022094;28;11509;-80
2021/05/07 00:58:15;;;;;;;;;7.25;7.25;;;;;;;;5023477;28;12071;-80
2021/05/07 01:00:43;;;;;;;;;9.00;9.00;;;;;;;;4997903;28;11438;-80
2021/05/07 01:03:10;;;;;;;;;12.00;10.00;;;;;;;;5026744;28;11580;-80
2021/05/07 01:05:37;;;;;;;;;12.00;10.50;;;;;;;;5005248;28;11546;-80
2021/05/07 01:08:05;;;;;;;;;10.75;10.75;;;;;;;;5014045;28;11525;-80
2021/05/07 01:10:32;;;;;;;;;12.25;10.00;;;;;;;;5024584;28;11551;-80
2021/05/07 01:12:59;;;;;;;;;14.25;13.50;;;;;;;;5023088;28;11556;-80
2021/05/07 01:15:26;;;;;;;;;15.25;13.25;;;;;;;;5006530;28;11624;-80
2021/05/07 01:17:56;;;;;;;;;12.50;12.50;;;;;;;;5007336;28;12349;-80
2021/05/07 01:20:26;;;;;;;;;13.25;11.50;;;;;;;;5022962;28;12293;-80
2021/05/07 01:22:54;;;;;;;;;14.25;12.50;;;;;;;;5020852;28;11586;-80
2021/05/07 01:25:23;;;;;;;;;12.00;12.00;;;;;;;;5023808;28;11585;-80
2021/05/07 01:27:51;;;;;;;;;12.25;11.00;;;;;;;;5024324;28;11605;-80
2021/05/07 01:30:20;;;;;;;;;12.75;10.50;;;;;;;;5023419;28;11674;-80
2021/05/07 01:32:48;;;;;;;;;11.00;8.75;;;;;;;;5012919;28;11681;-80
2021/05/07 01:35:20;;;;;;;;;12.25;12.25;;;;;;;;5025333;28;11541;-80
2021/05/07 01:37:50;;;;;;;;;12.50;11.00;;;;;;;;5024365;28;11637;-80
2021/05/07 01:40:20;;;;;;;;;14.00;14.00;;;;;;;;5007609;28;11586;-80
2021/05/07 01:42:47;;;;;;;;;12.75;10.25;;;;;;;;5025324;28;11659;-80
2021/05/07 01:45:16;;;;;;;;;12.75;10.50;;;;;;;;5024228;28;11546;-80
2021/05/07 01:47:43;;;;;;;;;17.75;12.75;;;;;;;;5025152;28;11560;-79
2021/05/07 01:50:12;;;;;;;;;12.25;9.75;;;;;;;;5023620;28;11764;-79
2021/05/07 01:52:40;;;;;;;;;9.75;8.00;;;;;;;;5025292;28;11534;-80
2021/05/07 01:55:10;;;;;;;;;14.75;14.75;;;;;;;;5024131;28;11527;-80
2021/05/07 01:57:38;;;;;;;;;10.00;10.00;;;;;;;;5031782;28;11572;-80
2021/05/07 02:00:07;;;;;;;;;15.25;12.50;;;;;;;;5014349;28;11538;-80
2021/05/07 02:02:34;;;;;;;;;11.00;9.00;;;;;;;;5024790;28;11572;-80
2021/05/07 02:05:01;;;;;;;;;10.00;10.00;;;;;;;;5024747;28;11535;-80
2021/05/07 02:07:29;;;;;;;;;13.75;12.00;;;;;;;;5023758;28;11657;-81
2021/05/07 02:09:56;;;;;;;;;17.50;12.00;;;;;;;;5008526;28;11545;-79
2021/05/07 02:12:24;;;;;;;;;16.25;14.00;;;;;;;;5023242;28;11637;-80
2021/05/07 02:14:51;;;;;;;;;11.75;11.75;;;;;;;;5024359;28;11573;-80
2021/05/07 02:17:18;;;;;;;;;12.00;12.00;;;;;;;;5023387;28;11681;-80
2021/05/07 02:19:45;;;;;;;;;17.75;13.00;;;;;;;;5025187;28;11598;-80
2021/05/07 02:22:12;;;;;;;;;11.25;9.00;;;;;;;;5013921;28;11583;-80
2021/05/07 02:24:40;;;;;;;;;16.50;14.25;;;;;;;;5038523;28;11536;-80
2021/05/07 02:27:07;;;;;;;;;13.25;13.00;;;;;;;;5007307;28;11543;-80
2021/05/07 02:29:35;;;;;;;;;15.50;15.50;;;;;;;;5023811;28;11697;-80
2021/05/07 02:32:02;;;;;;;;;20.75;16.50;;;;;;;;5024279;28;11696;-80
2021/05/07 02:34:28;;;;;;;;;12.50;11.00;;;;;;;;5004937;28;11722;-80
2021/05/07 02:36:55;;;;;;;;;14.75;12.25;;;;;;;;5024028;28;11547;-80
2021/05/07 02:39:22;;;;;;;;;16.50;14.75;;;;;;;;5023798;28;11529;-80
2021/05/07 02:41:50;;;;;;;;;17.00;15.00;;;;;;;;5006600;28;11556;-80
2021/05/07 02:44:16;;;;;;;;;14.50;11.75;;;;;;;;5008109;28;11738;-79
2021/05/07 02:46:45;;;;;;;;;16.75;16.00;;;;;;;;5015207;28;11582;-80
2021/05/07 02:49:12;;;;;;;;;21.75;15.50;;;;;;;;5017481;28;11764;-80
2021/05/07 02:51:39;;;;;;;;;16.00;13.00;;;;;;;;5023052;28;11631;-80
2021/05/07 02:54:05;;;;;;;;;17.50;17.50;;;;;;;;5024136;28;11627;-80
2021/05/07 02:56:32;;;;;;;;;15.25;13.00;;;;;;;;5023113;28;11751;-80
2021/05/07 02:58:59;;;;;;;;;17.25;15.00;;;;;;;;5021913;28;11623;-80
2021/05/07 03:01:26;;;;;;;;;15.50;11.75;;;;;;;;5010021;28;11512;-79
2021/05/07 03:03:54;;;;;;;;;16.00;16.00;;;;;;;;5003260;28;11619;-80
2021/05/07 03:06:21;;;;;;;;;13.75;13.50;;;;;;;;5003827;28;11738;-80
2021/05/07 03:08:48;;;;;;;;;15.50;13.50;;;;;;;;5003457;28;11586;-79
2021/05/07 03:11:15;;;;;;;;;12.75;12.75;;;;;;;;4986354;28;11634;-80
2021/05/07 03:13:42;;;;;;;;;17.00;15.50;;;;;;;;5000814;28;11600;-81
2021/05/07 03:16:09;;;;;;;;;17.75;15.50;;;;;;;;5002543;28;11696;-80
2021/05/07 03:18:36;;;;;;;;;18.00;14.25;;;;;;;;5003088;28;11596;-80
2021/05/07 03:21:04;;;;;;;;;14.00;13.00;;;;;;;;4997800;28;11672;-80
2021/05/07 03:23:31;;;;;;;;;17.75;17.75;;;;;;;;4998964;28;11589;-80
2021/05/07 03:25:58;;;;;;;;;14.25;12.50;;;;;;;;5003098;28;11589;-80
2021/05/07 03:28:25;;;;;;;;;18.25;13.25;;;;;;;;5019058;28;11705;-80
2021/05/07 03:30:52;;;;;;;;;16.75;16.75;;;;;;;;4988770;28;11543;-80
2021/05/07 03:33:19;;;;;;;;;17.25;15.00;;;;;;;;5020559;28;11616;-79
2021/05/07 03:35:46;;;;;;;;;15.00;15.00;;;;;;;;5021778;28;11719;-80
2021/05/07 03:38:14;;;;;;;;;19.50;17.25;;;;;;;;5023169;28;11595;-80
2021/05/07 03:40:41;;;;;;;;;14.75;14.75;;;;;;;;5022218;28;11713;-80
2021/05/07 03:43:08;;;;;;;;;19.00;12.50;;;;;;;;5019710;28;11644;-80
2021/05/07 03:45:35;;;;;;;;;19.25;15.00;;;;;;;;5017273;28;11582;-80
2021/05/07 03:48:02;;;;;;;;;11.00;11.00;;;;;;;;5007478;28;11647;-80
2021/05/07 03:50:29;;;;;;;;;13.50;12.50;;;;;;;;5054665;28;11585;-80
2021/05/07 03:52:56;;;;;;;;;19.50;16.00;;;;;;;;5021665;28;11701;-80
2021/05/07 03:55:24;;;;;;;;;14.50;14.50;;;;;;;;5023277;28;11646;-80
2021/05/07 03:57:50;;;;;;;;;14.75;14.75;;;;;;;;5021010;28;11702;-81
2021/05/07 04:00:18;;;;;;;;;21.75;18.75;;;;;;;;5019614;28;11634;-81
2021/05/07 04:02:45;;;;;;;;;14.50;14.50;;;;;;;;5001343;28;11736;-81
2021/05/07 04:05:13;;;;;;;;;12.75;12.75;;;;;;;;5001676;28;11613;-80
2021/05/07 04:07:40;;;;;;;;;12.25;12.25;;;;;;;;5003320;28;11586;-81
2021/05/07 04:10:14;;;;;;;;;9.50;9.00;;;;;;;;5002818;28;11613;-82
2021/05/07 04:15:34;;;;;;;;;8.50;8.50;;;;;;;;5002332;28;11570;-81
2021/05/07 04:18:01;;;;;;;;;11.75;10.50;;;;;;;;5001736;28;11608;-80
2021/05/07 04:20:28;;;;;;;;;12.75;12.00;;;;;;;;5002972;28;11596;-80
2021/05/07 04:22:55;;;;;;;;;18.00;16.50;;;;;;;;5002174;28;11656;-81
2021/05/07 04:25:22;;;;;;;;;13.75;11.75;;;;;;;;5002863;28;11607;-81
2021/05/07 04:27:50;;;;;;;;;13.25;12.50;;;;;;;;5001949;28;11589;-79
2021/05/07 04:30:17;;;;;;;;;13.00;11.00;;;;;;;;5004582;28;11646;-81
2021/05/07 04:32:44;;;;;;;;;15.50;15.50;;;;;;;;5021546;28;11614;-80
2021/05/07 04:35:11;;;;;;;;;15.25;13.50;;;;;;;;5022118;28;11629;-80
2021/05/07 04:37:38;;;;;;;;;22.00;17.25;;;;;;;;5022065;28;11611;-81
2021/05/07 04:40:06;;;;;;;;;17.25;14.75;;;;;;;;5015985;28;11635;-80
2021/05/07 04:42:33;;;;;;;;;13.00;13.00;;;;;;;;5022128;28;12329;-80
2021/05/07 04:45:01;;;;;;;;;16.00;13.50;;;;;;;;5015795;28;11551;-81
2021/05/07 04:47:28;;;;;;;;;14.75;11.50;;;;;;;;5008877;28;11485;-80
2021/05/07 04:49:54;;;;;;;;;16.00;11.00;;;;;;;;5020329;28;11617;-80
2021/05/07 04:52:21;;;;;;;;;12.25;12.25;;;;;;;;5022004;28;11594;-81
2021/05/07 04:54:48;;;;;;;;;17.75;16.25;;;;;;;;5004128;28;11552;-80
2021/05/07 04:57:15;;;;;;;;;15.50;12.75;;;;;;;;5022297;28;11585;-79
2021/05/07 04:59:42;;;;;;;;;13.50;13.50;;;;;;;;5021965;28;11651;-81
2021/05/07 05:02:10;;;;;;;;;17.00;17.00;;;;;;;;5003241;28;11497;-80
2021/05/07 05:04:37;;;;;;;;;16.75;13.75;;;;;;;;5023096;28;11560;-81
2021/05/07 05:07:07;;;;;;;;;14.75;12.00;;;;;;;;5010876;28;11569;-81
2021/05/07 05:09:34;;;;;;;;;15.75;14.50;;;;;;;;5026681;28;11602;-80
2021/05/07 05:12:01;;;;;;;;;18.25;16.75;;;;;;;;5007564;28;11567;-80
2021/05/07 05:14:28;;;;;;;;;16.00;14.25;;;;;;;;5025664;28;11548;-83
2021/05/07 05:16:54;;;;;;;;;22.25;18.75;;;;;;;;5021115;28;11739;-77
2021/05/07 05:19:22;;;;;;;;;15.00;12.50;;;;;;;;5033518;28;11551;-77
2021/05/07 05:21:49;;;;;;;;;15.25;13.25;;;;;;;;5019109;28;11496;-73
2021/05/07 05:24:16;;;;;;;;;15.75;13.00;;;;;;;;5024028;28;11563;-78
2021/05/07 05:26:43;;;;;;;;;19.25;14.75;;;;;;;;5007747;28;11582;-76
2021/05/07 05:29:12;;;;;;;;;15.75;13.50;;;;;;;;5024342;28;11591;-68
2021/05/07 05:31:38;;;;;;;;;15.75;13.75;;;;;;;;5024367;28;11497;-80
2021/05/07 05:34:05;;;;;;;;;16.00;16.00;;;;;;;;5024749;28;11567;-76
2021/05/07 05:36:33;;;;;;;;;16.25;16.25;;;;;;;;5036832;28;11689;-78
2021/05/07 05:39:00;;;;;;;;;18.50;16.00;;;;;;;;5036913;28;11526;-75
2021/05/07 05:41:27;;;;;;;;;19.25;17.00;;;;;;;;5032947;28;11682;-82
2021/05/07 05:43:54;;;;;;;;;21.25;14.25;;;;;;;;5036730;28;11564;-80
2021/05/07 05:46:20;;;;;;;;;20.75;16.25;;;;;;;;5033898;28;11791;-79
2021/05/07 05:48:47;;;;;;;;;16.25;15.75;;;;;;;;5035085;28;11845;-83
2021/05/07 05:51:14;;;;;;;;;17.00;17.00;;;;;;;;5036642;28;12338;-78
2021/05/07 05:53:42;;;;;;;;;15.00;15.00;;;;;;;;5021065;28;11548;-78
2021/05/07 05:56:09;;;;;;;;;18.00;14.25;;;;;;;;5031710;28;11581;-80
2021/05/07 05:58:36;;;;;;;;;19.50;14.00;;;;;;;;5041060;28;11552;-73
2021/05/07 06:01:03;;;;;;;;;20.00;18.50;;;;;;;;5035899;28;11545;-77
2021/05/07 06:03:30;;;;;;;;;17.75;13.75;;;;;;;;5040640;28;11545;-78
2021/05/07 06:05:56;;;;;;;;;14.50;14.50;;;;;;;;5033596;28;11543;-79
2021/05/07 06:08:23;;;;;;;;;17.75;15.50;;;;;;;;5032370;28;11646;-79
2021/05/07 06:10:51;;;;;;;;;16.50;16.00;;;;;;;;5041556;28;11982;-84
2021/05/07 06:13:18;;;;;;;;;22.25;21.00;;;;;;;;5028964;28;11545;-79
2021/05/07 06:15:45;;;;;;;;;20.75;19.00;;;;;;;;5023444;28;11564;-82
2021/05/07 06:18:11;;;;;;;;;14.00;14.00;;;;;;;;5032840;28;11543;-82
2021/05/07 06:20:39;;;;;;;;;17.75;14.00;;;;;;;;5032822;28;11554;-80
2021/05/07 06:23:06;;;;;;;;;17.25;14.25;;;;;;;;5026251;28;11537;-77
2021/05/07 06:25:33;;;;;;;;;23.50;18.25;;;;;;;;5024002;28;11602;-82
2021/05/07 06:28:01;;;;;;;;;18.75;16.00;;;;;;;;5025276;28;11653;-78
2021/05/07 06:30:28;;;;;;;;;19.25;16.75;;;;;;;;5005838;28;11612;-81
2021/05/07 06:32:56;;;;;;;;;15.50;14.00;;;;;;;;5024649;28;12538;-71
2021/05/07 06:35:22;;;;;;;;;17.75;17.25;;;;;;;;5024748;28;11612;-75
2021/05/07 06:37:49;;;;;;;;;13.00;13.00;;;;;;;;5023584;28;11579;-86
2021/05/07 06:40:19;;;;;;;;;19.00;15.50;;;;;;;;5016476;28;11658;-75
2021/05/07 06:42:47;;;;;;;;;13.75;13.75;;;;;;;;5013760;28;11641;-81
2021/05/07 06:45:16;;;;;;;;;19.50;14.25;;;;;;;;5040163;28;11596;-80
2021/05/07 06:47:44;;;;;;;;;15.00;13.75;;;;;;;;5014628;28;11530;-81
2021/05/07 06:50:12;;;;;;;;;15.50;14.00;;;;;;;;5020931;28;11541;-80
2021/05/07 06:52:39;;;;;;;;;14.75;14.75;;;;;;;;5032465;28;11659;-80
2021/05/07 06:55:07;;;;;;;;;19.50;13.25;;;;;;;;5041456;28;11546;-80
2021/05/07 06:57:35;;;;;;;;;14.00;14.00;;;;;;;;5026973;28;11544;-80
2021/05/07 07:00:02;;;;;;;;;15.25;13.25;;;;;;;;5030194;28;11545;-77
2021/05/07 07:02:30;;;;;;;;;14.25;12.75;;;;;;;;5038243;28;11494;-84
2021/05/07 07:04:57;;;;;;;;;10.75;10.75;;;;;;;;5029375;28;11530;-79
2021/05/07 07:07:26;;;;;;;;;10.00;10.00;;;;;;;;5024412;28;11519;-80
2021/05/07 07:09:53;;;;;;;;;12.50;10.25;;;;;;;;5023038;28;11570;-83
2021/05/07 07:12:20;;;;;;;;;8.25;8.25;;;;;;;;5023712;28;11505;-84
2021/05/07 07:14:47;;;;;;;;;5.75;5.75;;;;;;;;5024614;28;11576;-82
2021/05/07 07:17:13;;;;;;;;;10.00;7.00;;;;;;;;5023039;28;11540;-84
2021/05/07 07:19:41;;;;;;;;;11.00;11.00;;;;;;;;5031030;28;11470;-86
2021/05/07 07:22:08;;;;;;;;;13.50;10.00;;;;;;;;5023712;28;11536;-80
2021/05/07 07:24:35;;;;;;;;;7.00;5.25;;;;;;;;5029166;28;11485;-81
2021/05/07 07:27:02;;;;;;;;;7.00;5.25;;;;;;;;5038330;28;11444;-72
2021/05/07 07:29:29;;;;;;;;;5.00;5.00;;;;;;;;5019195;28;11344;-83
2021/05/07 07:31:56;;;;;;;;;3.50;3.50;;;;;;;;5014111;28;11462;-81
2021/05/07 07:34:23;;;;;;;;;2.75;2.75;;;;;;;;5020983;28;11145;-80
2021/05/07 07:36:51;;;;;;;;;5.00;5.00;;;;;;;;5035324;28;11161;-79
2021/05/07 07:39:19;;;;;;;;;3.00;3.00;;;;;;;;5035503;28;11143;-77
2021/05/07 07:41:46;;;;;;;;;5.00;5.00;;;;;;;;5035349;28;10936;-80
2021/05/07 07:44:14;;;;;;;;;3.25;3.25;;;;;;;;5036332;28;11874;-78
2021/05/07 07:46:42;;;;;;;;;3.75;3.25;;;;;;;;5013606;28;10900;-81
2021/05/07 07:49:09;;;;;;;;;4.25;4.25;;;;;;;;5032821;28;10790;-78
2021/05/07 07:51:36;;;;;;;;;3.25;2.75;;;;;;;;5030736;28;11021;-79
2021/05/07 07:54:06;;;;;;;;;4.50;3.25;;;;;;;;5032739;28;10776;-78
2021/05/07 07:56:34;;;;;;;;;3.25;3.25;;;;;;;;5021559;28;10874;-79
2021/05/07 07:59:01;;;;;;;;;12.00;10.75;;;;;;;;5023470;28;11662;-79
2021/05/07 08:01:28;;;;;;;;;10.25;10.25;;;;;;;;5021810;28;11371;-81
2021/05/07 08:03:55;;;;;;;;;10.75;10.75;;;;;;;;5023426;28;11870;-81
2021/05/07 08:06:22;;;;;;;;;9.50;9.50;;;;;;;;4995878;28;12104;-80
2021/05/07 08:08:49;;;;;;;;;8.25;8.25;;;;;;;;5019838;28;11144;-81
2021/05/07 08:11:18;;;;;;;;;8.75;7.00;;;;;;;;5033701;28;11130;-80
2021/05/07 08:13:45;;;;;;;;;3.00;3.00;;;;;;;;5022148;28;10865;-80
2021/05/07 08:16:12;;;;;;;;;3.50;3.50;;;;;;;;5023201;28;10672;-77
2021/05/07 08:18:39;;;;;;;;;2.25;2.25;;;;;;;;5022637;28;10280;-80
2021/05/07 08:21:06;;;;;;;;;5.00;2.75;;;;;;;;5007370;28;10987;-76
2021/05/07 08:23:33;;;;;;;;;2.00;2.00;;;;;;;;5022707;28;10282;-81
2021/05/07 08:26:00;;;;;;;;;2.00;2.00;;;;;;;;5024614;28;10124;-81
2021/05/07 08:28:28;;;;;;;;;3.00;1.25;;;;;;;;5030909;28;10159;-75
2021/05/07 08:30:55;;;;;;;;;2.00;2.00;;;;;;;;5023234;28;9984;-81
2021/05/07 08:33:22;;;;;;;;;3.00;3.00;;;;;;;;5009769;28;10128;-78
2021/05/07 08:35:49;;;;;;;;;3.00;3.00;;;;;;;;5026113;28;10131;-82
2021/05/07 08:38:16;;;;;;;;;2.50;2.00;;;;;;;;5022270;28;10035;-81
2021/05/07 08:40:43;;;;;;;;;2.75;2.75;;;;;;;;5027946;28;10113;-78
2021/05/07 08:43:13;;;;;;;;;2.00;2.00;;;;;;;;5028265;28;9956;-82
2021/05/07 08:45:41;;;;;;;;;2.50;2.50;;;;;;;;5029569;28;9956;-80
2021/05/07 08:48:11;;;;;;;;;3.00;3.00;;;;;;;;5032510;28;9904;-81
2021/05/07 08:50:38;;;;;;;;;2.00;2.00;;;;;;;;5014803;28;10166;-79
2021/05/07 08:53:04;;;;;;;;;3.00;2.00;;;;;;;;5030173;28;9968;-78
2021/05/07 08:55:31;;;;;;;;;2.00;2.00;;;;;;;;5035702;28;9651;-80
2021/05/07 08:57:58;;;;;;;;;2.00;2.00;;;;;;;;5025897;28;9788;-79
2021/05/07 09:00:25;;;;;;;;;2.25;2.00;;;;;;;;5026104;28;9571;-81
2021/05/07 09:03:03;;;;;;;;;1.50;1.50;;;;;;;;5023965;28;9661;-72
2021/05/07 09:05:34;;;;;;;;;5.00;3.50;;;;;;;;5025507;28;9596;-85
2021/05/07 09:08:01;;;;;;;;;2.75;2.75;;;;;;;;5009387;28;9677;-79
2021/05/07 09:10:36;;;;;;;;;2.00;2.00;;;;;;;;5025639;28;9609;-83
2021/05/07 09:13:04;;;;;;;;;3.25;2.25;;;;;;;;5026472;28;9498;-83
2021/05/07 09:15:44;;;;;;;;;2.33;2.00;;;;;;;;5028369;28;9514;-83
2021/05/07 09:18:13;;;;;;;;;2.25;2.25;;;;;;;;5037658;28;9331;-79
2021/05/07 09:20:41;;;;;;;;;3.00;3.00;;;;;;;;5038781;28;9538;-85
2021/05/07 09:23:12;;;;;;;;;2.33;2.33;;;;;;;;5029090;28;9563;-75
2021/05/07 09:25:41;;;;;;;;;3.00;3.00;;;;;;;;5034348;28;9359;-86
2021/05/07 09:28:11;;;;;;;;;2.75;2.75;;;;;;;;5029402;28;9456;-83
2021/05/07 09:30:38;;;;;;;;;3.00;1.33;;;;;;;;5027800;28;9349;-82
2021/05/07 09:33:09;;;;;;;;;2.33;2.33;;;;;;;;5022336;28;9443;-86
2021/05/07 09:35:38;;;;;;;;;4.00;2.00;;;;;;;;5026070;28;9240;-87
2021/05/07 09:38:06;;;;;;;;;3.00;3.00;;;;;;;;5031529;28;9340;-83
2021/05/07 09:40:34;;;;;;;;;2.33;2.33;;;;;;;;5037627;28;9270;-82
2021/05/07 09:43:10;;;;;;;;;3.00;1.00;;;;;;;;5040249;28;9398;-86
2021/05/07 09:45:39;;;;;;;;;2.00;2.00;;;;;;;;5032031;28;9231;-84
2021/05/07 09:48:17;;;;;;;;;2.67;2.67;;;;;;;;5039850;28;9880;-85
2021/05/07 09:50:45;;;;;;;;;1.00;1.00;;;;;;;;5038375;28;9302;-76
2021/05/07 09:53:14;;;;;;;;;1.33;1.33;;;;;;;;5036033;28;9186;-85
2021/05/07 09:55:41;;;;;;;;;2.33;2.33;;;;;;;;5033936;28;9207;-88
2021/05/07 09:58:08;;;;;;;;;1.67;1.67;;;;;;;;5035248;28;9217;-81
2021/05/07 10:00:36;;;;;;;;;1.67;1.00;;;;;;;;5028340;28;9009;-84
2021/05/07 10:03:03;;;;;;;;;3.00;3.00;;;;;;;;5026063;28;8963;-78
2021/05/07 10:05:30;;;;;;;;;3.00;1.25;;;;;;;;5025075;28;9001;-79
2021/05/07 10:07:59;;;;;;;;;1.50;1.50;;;;;;;;5031152;28;8856;-75
2021/05/07 10:10:31;;;;;;;;;2.50;2.00;;;;;;;;5025504;28;8872;-79
2021/05/07 10:13:00;;;;;;;;;2.25;2.25;;;;;;;;5025191;28;8892;-79
2021/05/07 10:15:28;;;;;;;;;2.75;2.75;;;;;;;;5023746;28;8896;-79
2021/05/07 10:17:55;;;;;;;;;3.00;1.75;;;;;;;;5025532;28;8942;-81
2021/05/07 10:20:24;;;;;;;;;2.00;2.00;;;;;;;;5023578;28;9627;-80
2021/05/07 10:22:51;;;;;;;;;2.00;2.00;;;;;;;;5025636;28;8954;-80
2021/05/07 10:25:22;;;;;;;;;2.25;2.25;;;;;;;;5019304;28;8853;-81
2021/05/07 10:27:51;;;;;;;;;2.50;2.00;;;;;;;;5024574;28;8927;-77
2021/05/07 10:30:30;;;;;;;;;1.75;1.75;;;;;;;;5023072;28;8999;-80
2021/05/07 10:33:00;;;;;;;;;1.75;1.25;;;;;;;;5023574;28;8905;-80
2021/05/07 10:35:31;;;;;;;;;1.00;1.00;;;;;;;;5025079;28;9642;-80
2021/05/07 10:38:10;;;;;;;;;2.25;2.00;;;;;;;;5024034;28;8886;-79
2021/05/07 10:40:39;;;;;;;;;1.75;1.75;;;;;;;;5024518;28;9679;-80
2021/05/07 10:43:07;;;;;;;;;2.00;2.00;;;;;;;;5024207;28;8976;-81
2021/05/07 10:45:44;;;;;;;;;2.00;2.00;;;;;;;;5016039;28;8868;-81
2021/05/07 10:48:22;;;;;;;;;2.00;2.00;;;;;;;;5009273;28;8888;-77
2021/05/07 10:50:52;;;;;;;;;2.00;2.00;;;;;;;;5023301;28;8876;-77
2021/05/07 10:53:34;;;;;;;;;2.00;2.00;;;;;;;;5023946;28;8895;-80
2021/05/07 10:56:13;;;;;;;;;2.00;2.00;;;;;;;;5019015;28;8955;-74
2021/05/07 10:58:40;;;;;;;;;2.00;2.00;;;;;;;;5023121;28;8884;-80
2021/05/07 11:01:19;;;;;;;;;2.25;2.25;;;;;;;;5022632;28;8841;-75
2021/05/07 11:03:46;;;;;;;;;2.50;2.50;;;;;;;;5022167;28;9070;-80
2021/05/07 11:06:17;;;;;;;;;2.25;2.25;;;;;;;;5024450;28;8885;-80
2021/05/07 11:08:44;;;;;;;;;1.50;1.00;;;;;;;;5023946;28;8871;-77
2021/05/07 11:11:12;;;;;;;;;2.00;2.00;;;;;;;;5023994;28;8975;-81
2021/05/07 11:13:39;;;;;;;;;1.00;1.00;;;;;;;;5024022;28;8877;-80
2021/05/07 11:16:06;;;;;;;;;2.00;2.00;;;;;;;;5023157;28;8934;-79
2021/05/07 11:18:34;;;;;;;;;2.00;2.00;;;;;;;;5024658;28;8869;-80
2021/05/07 11:21:12;;;;;;;;;2.00;0.25;;;;;;;;5017073;28;8910;-81
2021/05/07 11:23:39;;;;;;;;;2.00;2.00;;;;;;;;5018536;28;8899;-81
2021/05/07 11:26:07;;;;;;;;;0.00;0.00;;;;;;;;5023498;28;8976;-77
2021/05/07 11:28:50;;;;;;;;;1.00;1.00;;;;;;;;5022949;28;8868;-78
2021/05/07 11:31:27;;;;;;;;;0.00;0.00;;;;;;;;5022190;28;8807;-78
2021/05/07 11:33:54;;;;;;;;;2.00;2.00;;;;;;;;5005035;28;8872;-81
2021/05/07 11:36:21;;;;;;;;;1.25;1.25;;;;;;;;5023493;28;8903;-82
2021/05/07 11:38:48;;;;;;;;;3.25;2.00;;;;;;;;5019591;28;9017;-76
2021/05/07 11:41:23;;;;;;;;;2.75;1.00;;;;;;;;5012992;28;8964;-80
2021/05/07 11:43:52;;;;;;;;;2.00;2.00;;;;;;;;5006994;28;8852;-80
2021/05/07 11:46:20;;;;;;;;;1.00;1.00;;;;;;;;5019083;28;8868;-81
2021/05/07 11:48:48;;;;;;;;;0.00;0.00;;;;;;;;5023784;28;8868;-81
2021/05/07 11:51:16;;;;;;;;;1.00;1.00;;;;;;;;5023207;28;8895;-79
2021/05/07 11:53:43;;;;;;;;;1.75;1.75;;;;;;;;5020398;28;9642;-82
2021/05/07 11:56:21;;;;;;;;;2.00;1.00;;;;;;;;5021406;28;8958;-81
2021/05/07 11:58:51;;;;;;;;;2.00;2.00;;;;;;;;5023201;28;8895;-82
2021/05/07 12:01:19;;;;;;;;;1.50;1.50;;;;;;;;5013213;28;8817;-78
2021/05/07 12:03:47;;;;;;;;;1.75;1.75;;;;;;;;5001494;28;8884;-82
2021/05/07 12:06:17;;;;;;;;;5.00;2.00;;;;;;;;5003865;28;8930;-79
2021/05/07 12:08:45;;;;;;;;;1.00;1.00;;;;;;;;5002952;28;8868;-82
2021/05/07 12:11:13;;;;;;;;;6.00;1.75;;;;;;;;5004048;28;8868;-81
2021/05/07 12:13:40;;;;;;;;;1.25;1.00;;;;;;;;5003867;28;8982;-83
2021/05/07 12:16:09;;;;;;;;;1.50;1.50;;;;;;;;5007057;28;8894;-81
2021/05/07 12:18:38;;;;;;;;;2.00;2.00;;;;;;;;5008341;28;8949;-82
2021/05/07 12:21:07;;;;;;;;;2.00;2.00;;;;;;;;4987044;28;8863;-82
2021/05/07 12:23:43;;;;;;;;;1.00;1.00;;;;;;;;5001988;28;9694;-81
2021/05/07 12:26:10;;;;;;;;;1.25;1.25;;;;;;;;5007443;28;9002;-82
2021/05/07 12:28:38;;;;;;;;;1.00;1.00;;;;;;;;5007994;28;9479;-81
2021/05/07 12:31:06;;;;;;;;;1.75;1.75;;;;;;;;5006041;28;8805;-79
2021/05/07 12:33:35;;;;;;;;;0.00;0.00;;;;;;;;5007136;28;9710;-81
2021/05/07 12:36:03;;;;;;;;;0.25;0.25;;;;;;;;5008024;28;8864;-83
2021/05/07 12:38:34;;;;;;;;;1.25;1.00;;;;;;;;5006642;28;8872;-82
2021/05/07 12:41:03;;;;;;;;;2.00;2.00;;;;;;;;5008036;28;8879;-77
2021/05/07 12:43:33;;;;;;;;;1.25;1.25;;;;;;;;5005774;28;8923;-82
2021/05/07 12:46:00;;;;;;;;;2.00;0.25;;;;;;;;4995631;28;8896;-82
2021/05/07 12:48:27;;;;;;;;;1.25;0.75;;;;;;;;5004666;28;8879;-82
2021/05/07 12:50:55;;;;;;;;;1.50;0.75;;;;;;;;4989306;28;8882;-81
2021/05/07 12:53:24;;;;;;;;;1.00;1.00;;;;;;;;4990240;28;8874;-82
2021/05/07 12:55:51;;;;;;;;;2.00;2.00;;;;;;;;5005952;28;9001;-77
2021/05/07 12:58:18;;;;;;;;;1.00;1.00;;;;;;;;5007248;28;8922;-82
2021/05/07 13:00:46;;;;;;;;;2.50;2.00;;;;;;;;5011170;28;8796;-82
2021/05/07 13:03:13;;;;;;;;;1.00;1.00;;;;;;;;5026075;28;8976;-82
2021/05/07 13:05:40;;;;;;;;;1.50;1.00;;;;;;;;5024840;28;8907;-82
2021/05/07 13:08:09;;;;;;;;;1.00;1.00;;;;;;;;5026106;28;8886;-82
2021/05/07 13:10:36;;;;;;;;;2.00;2.00;;;;;;;;5027181;28;8872;-81
2021/05/07 13:13:03;;;;;;;;;1.00;1.00;;;;;;;;5025869;28;8868;-81
2021/05/07 13:15:31;;;;;;;;;0.75;0.75;;;;;;;;5026529;28;8886;-79
2021/05/07 13:17:58;;;;;;;;;1.00;1.00;;;;;;;;5025885;28;8868;-81
2021/05/07 13:20:27;;;;;;;;;3.75;1.00;;;;;;;;5026597;28;9307;-82
2021/05/07 13:22:54;;;;;;;;;1.25;1.00;;;;;;;;5025672;28;8887;-82
2021/05/07 13:25:22;;;;;;;;;1.00;1.00;;;;;;;;5024938;28;9698;-82
2021/05/07 13:27:51;;;;;;;;;1.00;1.00;;;;;;;;5050598;28;8916;-82
2021/05/07 13:30:20;;;;;;;;;2.75;1.00;;;;;;;;5019959;28;8919;-83
2021/05/07 13:32:47;;;;;;;;;1.75;1.75;;;;;;;;5026585;28;8864;-82
2021/05/07 13:35:15;;;;;;;;;1.00;1.00;;;;;;;;5025365;28;8946;-81
2021/05/07 13:37:44;;;;;;;;;1.75;0.75;;;;;;;;5027014;28;8871;-82
2021/05/07 13:40:13;;;;;;;;;1.25;1.25;;;;;;;;5025369;28;8908;-81
2021/05/07 13:42:41;;;;;;;;;1.50;1.00;;;;;;;;5017279;28;9751;-83
2021/05/07 13:45:11;;;;;;;;;0.50;0.50;;;;;;;;5018216;28;8925;-78
2021/05/07 13:47:38;;;;;;;;;0.75;0.75;;;;;;;;5012783;28;9713;-83
2021/05/07 13:50:05;;;;;;;;;1.00;1.00;;;;;;;;5024787;28;8856;-82
2021/05/07 13:52:32;;;;;;;;;3.00;1.00;;;;;;;;5024254;28;8888;-83
2021/05/07 13:54:59;;;;;;;;;1.75;1.75;;;;;;;;5025901;28;8879;-83
2021/05/07 13:57:28;;;;;;;;;2.00;1.00;;;;;;;;5024367;28;8883;-82
2021/05/07 13:59:58;;;;;;;;;2.00;2.00;;;;;;;;5024337;28;8880;-83
2021/05/07 14:02:25;;;;;;;;;1.75;1.75;;;;;;;;5025133;28;8858;-83
2021/05/07 14:04:53;;;;;;;;;1.00;1.00;;;;;;;;5011155;28;8894;-79
2021/05/07 14:07:20;;;;;;;;;1.00;1.00;;;;;;;;5016809;28;8893;-72
2021/05/07 14:09:47;;;;;;;;;0.00;0.00;;;;;;;;5021816;28;8879;-77
2021/05/07 14:12:14;;;;;;;;;1.00;1.00;;;;;;;;5019711;28;8859;-74
2021/05/07 14:14:45;;;;;;;;;1.75;1.75;;;;;;;;5021758;28;8872;-82
2021/05/07 14:17:13;;;;;;;;;4.00;2.00;;;;;;;;5022398;28;8864;-78
2021/05/07 14:19:40;;;;;;;;;3.75;3.75;;;;;;;;5021138;28;8876;-73
2021/05/07 14:22:07;;;;;;;;;1.75;1.75;;;;;;;;5020732;28;8937;-81
2021/05/07 14:24:34;;;;;;;;;1.00;1.00;;;;;;;;5020518;28;8955;-74
2021/05/07 14:27:01;;;;;;;;;1.00;1.00;;;;;;;;5019470;28;8880;-74
2021/05/07 14:29:28;;;;;;;;;1.00;1.00;;;;;;;;5023373;28;8872;-78
2021/05/07 14:31:55;;;;;;;;;3.00;1.00;;;;;;;;5018548;28;8872;-78
2021/05/07 14:34:24;;;;;;;;;2.00;2.00;;;;;;;;5021917;28;8871;-78
2021/05/07 14:36:51;;;;;;;;;2.00;2.00;;;;;;;;5022270;28;8899;-81
2021/05/07 14:39:18;;;;;;;;;2.00;2.00;;;;;;;;5014997;28;8903;-82
2021/05/07 14:41:45;;;;;;;;;2.75;2.75;;;;;;;;5023653;28;8864;-79
2021/05/07 14:44:12;;;;;;;;;2.00;2.00;;;;;;;;5020316;28;8895;-79